createdAt,value
2019-05-12T00:02:13.175Z,102617.84
2019-05-12T00:05:23.836Z,102616.48
2019-05-12T00:08:33.626Z,102616.31
2019-05-12T00:11:44.462Z,102623.11
2019-05-12T00:14:54.388Z,102625.44
2019-05-12T00:18:05.108Z,102628.34
2019-05-12T00:21:17.698Z,102624.25
2019-05-12T00:24:28.122Z,102627.42
2019-05-12T00:27:38.739Z,102634.74
2019-05-12T00:30:51.511Z,102629.95
2019-05-12T00:34:03.040Z,102638.53
2019-05-12T00:37:13.633Z,102636.44
2019-05-12T00:40:23.413Z,102645.20
2019-05-12T00:43:33.414Z,102650.88
2019-05-12T00:46:44.254Z,102642.33
2019-05-12T00:49:54.178Z,102654.50
2019-05-12T00:53:04.422Z,102655.52
2019-05-12T00:56:15.206Z,102662.70
2019-05-12T00:59:27.815Z,102662.41
2019-05-12T01:02:38.228Z,102666.05
2019-05-12T01:05:48.542Z,102677.91
2019-05-12T01:08:59.624Z,102679.28
2019-05-12T01:12:09.490Z,102682.25
2019-05-12T01:15:19.351Z,102683.59
2019-05-12T01:18:30.182Z,102684.28
2019-05-12T01:21:41.050Z,102697.32
2019-05-12T01:24:51.725Z,102696.73
2019-05-12T01:28:03.608Z,102697.40
2019-05-12T01:31:15.100Z,102695.14
2019-05-12T01:34:27.748Z,102701.01
2019-05-12T01:37:38.775Z,102704.67
2019-05-12T01:40:49.212Z,102706.97
2019-05-12T01:43:59.543Z,102707.50
2019-05-12T01:47:10.432Z,102712.75
2019-05-12T01:50:21.078Z,102709.34
2019-05-12T01:53:31.838Z,102711.64
2019-05-12T01:56:42.626Z,102727.08
2019-05-12T01:59:53.356Z,102720.94
2019-05-12T02:03:03.612Z,102724.66
2019-05-12T02:06:14.240Z,102734.33
2019-05-12T02:09:28.019Z,102740.02
2019-05-12T02:12:38.565Z,102741.19
2019-05-12T02:15:49.708Z,102745.08
2019-05-12T02:18:59.750Z,102749.63
2019-05-12T02:22:10.425Z,102757.78
2019-05-12T02:25:21.232Z,102767.39
2019-05-12T02:28:31.746Z,102762.17
2019-05-12T02:31:42.009Z,102768.52
2019-05-12T02:34:54.810Z,102778.94
2019-05-12T02:38:10.310Z,102779.27
2019-05-12T02:41:21.331Z,102781.56
2019-05-12T02:44:34.567Z,102781.06
2019-05-12T02:47:45.688Z,102787.56
2019-05-12T02:50:56.571Z,102793.75
2019-05-12T02:54:07.366Z,102799.94
2019-05-12T02:57:19.370Z,102799.96
2019-05-12T03:00:35.126Z,102803.54
2019-05-12T03:03:48.182Z,102815.72
2019-05-12T03:07:06.542Z,102818.81
2019-05-12T03:10:25.310Z,102826.76
2019-05-12T03:17:47.216Z,102825.48
2019-05-12T03:21:00.216Z,102835.25
2019-05-12T03:24:14.708Z,102841.91
2019-05-12T03:27:25.826Z,102837.20
2019-05-12T03:30:41.311Z,102846.16
2019-05-12T03:34:10.881Z,102851.03
2019-05-12T03:37:20.396Z,102859.65
2019-05-12T03:40:38.252Z,102862.09
2019-05-12T03:54:07.436Z,102871.13
2019-05-12T03:57:25.216Z,102868.32
2019-05-12T04:00:35.697Z,102874.23
2019-05-12T04:03:45.713Z,102877.14
2019-05-12T04:06:55.335Z,102886.30
2019-05-12T04:10:11.734Z,102891.20
2019-05-12T04:16:45.358Z,102905.36
2019-05-12T04:20:04.746Z,102902.95
2019-05-12T04:30:10.429Z,102920.03
2019-05-12T04:33:21.204Z,102922.87
2019-05-12T04:36:35.595Z,102932.17
2019-05-12T04:46:41.062Z,102936.98
2019-05-12T04:49:54.671Z,102939.40
2019-05-12T04:53:10.864Z,102940.06
2019-05-12T04:56:24.744Z,102946.57
2019-05-12T04:59:34.536Z,102948.82
2019-05-12T05:02:45.744Z,102953.98
2019-05-12T05:05:56.764Z,102958.02
2019-05-12T05:09:14.482Z,102961.69
2019-05-12T05:12:26.394Z,102970.28
2019-05-12T05:15:36.024Z,102967.95
2019-05-12T05:18:45.667Z,102973.05
2019-05-12T05:21:58.835Z,102971.74
2019-05-12T05:25:14.232Z,102978.51
2019-05-12T05:28:26.617Z,102986.88
2019-05-12T05:31:36.549Z,102992.34
2019-05-12T05:34:53.703Z,102990.41
2019-05-12T05:37:59.375Z,103002.17
2019-05-12T05:41:15.363Z,103008.83
2019-05-12T05:44:39.161Z,103020.59
2019-05-12T05:47:49.283Z,103022.69
2019-05-12T05:50:59.879Z,103028.44
2019-05-12T05:54:13.749Z,103034.09
2019-05-12T05:57:27.771Z,103032.77
2019-05-12T06:00:39.029Z,103038.77
2019-05-12T06:03:47.821Z,103050.59
2019-05-12T06:06:58.104Z,103052.80
2019-05-12T06:13:34.570Z,103063.64
2019-05-12T06:22:27.881Z,103081.27
2019-05-12T06:25:05.060Z,103078.05
2019-05-12T06:27:40.470Z,103085.42
2019-05-12T06:30:15.519Z,103088.11
2019-05-12T06:32:52.412Z,103083.30
2019-05-12T06:35:30.990Z,103086.48
2019-05-12T06:38:05.465Z,103090.92
2019-05-12T06:40:42.402Z,103090.92
2019-05-12T06:43:17.388Z,103092.02
2019-05-12T06:45:54.424Z,103091.81
2019-05-12T06:48:30.282Z,103093.28
2019-05-12T06:51:09.228Z,103089.28
2019-05-12T06:53:44.331Z,103084.98
2019-05-12T06:56:28.027Z,103082.88
2019-05-12T06:59:09.764Z,103090.40
2019-05-12T07:01:40.690Z,103093.59
2019-05-12T07:04:15.781Z,103096.39
2019-05-12T07:06:56.174Z,103110.19
2019-05-12T07:09:29.471Z,103098.23
2019-05-12T07:12:07.219Z,103105.56
2019-05-12T07:14:43.825Z,103106.78
2019-05-12T07:17:37.247Z,103113.30
2019-05-12T07:20:08.691Z,103108.19
2019-05-12T07:22:48.100Z,103117.09
2019-05-12T07:25:22.794Z,103118.91
2019-05-12T07:28:00.781Z,103115.91
2019-05-12T07:30:35.140Z,103112.14
2019-05-12T07:33:10.490Z,103115.25
2019-05-12T07:35:46.151Z,103120.05
2019-05-12T07:38:25.716Z,103117.59
2019-05-12T07:41:08.243Z,103130.94
2019-05-12T07:43:40.724Z,103128.92
2019-05-12T07:46:18.504Z,103127.22
2019-05-12T07:48:54.205Z,103132.70
2019-05-12T07:51:35.165Z,103140.41
2019-05-12T07:54:06.815Z,103142.95
2019-05-12T07:56:44.250Z,103142.83
2019-05-12T07:59:18.977Z,103157.85
2019-05-12T08:01:54.964Z,103165.47
2019-05-12T08:04:31.671Z,103163.38
2019-05-12T08:07:06.977Z,103166.89
2019-05-12T08:09:43.218Z,103166.33
2019-05-12T08:12:20.958Z,103168.29
2019-05-12T08:14:59.468Z,103178.06
2019-05-12T08:17:33.713Z,103178.84
2019-05-12T08:20:09.454Z,103181.95
2019-05-12T08:22:44.810Z,103191.03
2019-05-12T08:25:24.810Z,103182.34
2019-05-12T08:28:11.104Z,103186.03
2019-05-12T08:30:40.373Z,103191.16
2019-05-12T08:33:14.721Z,103182.46
2019-05-12T08:35:49.917Z,103184.38
2019-05-12T08:38:25.196Z,103184.55
2019-05-12T08:41:01.243Z,103180.91
2019-05-12T08:43:40.482Z,103185.68
2019-05-12T08:46:15.604Z,103184.94
2019-05-12T08:48:51.457Z,103183.74
2019-05-12T08:51:26.917Z,103183.89
2019-05-12T08:54:07.965Z,103179.78
2019-05-12T08:56:40.446Z,103195.27
2019-05-12T08:59:18.452Z,103184.00
2019-05-12T09:01:54.078Z,103202.77
2019-05-12T09:04:29.114Z,103209.41
2019-05-12T09:07:04.547Z,103211.81
2019-05-12T09:09:39.575Z,103218.34
2019-05-12T09:12:15.716Z,103212.06
2019-05-12T09:14:50.864Z,103208.59
2019-05-12T09:17:26.086Z,103200.36
2019-05-12T09:20:06.030Z,103202.32
2019-05-12T09:22:38.194Z,103204.43
2019-05-12T09:25:25.529Z,103200.52
2019-05-12T09:28:00.506Z,103209.74
2019-05-12T09:30:39.982Z,103211.31
2019-05-12T09:33:14.024Z,103223.71
2019-05-12T09:35:49.335Z,103238.85
2019-05-12T09:38:26.405Z,103234.62
2019-05-12T09:41:03.259Z,103240.63
2019-05-12T09:43:40.179Z,103241.91
2019-05-12T09:46:15.318Z,103238.06
2019-05-12T09:48:52.324Z,103244.91
2019-05-12T09:51:32.958Z,103240.95
2019-05-12T09:54:05.210Z,103240.50
2019-05-12T09:56:41.297Z,103241.55
2019-05-12T09:59:22.926Z,103235.94
2019-05-12T10:01:55.292Z,103223.43
2019-05-12T10:04:30.612Z,103230.88
2019-05-12T10:07:06.809Z,103244.13
2019-05-12T10:09:43.932Z,103241.16
2019-05-12T10:12:18.832Z,103256.30
2019-05-12T10:14:53.999Z,103248.90
2019-05-12T10:17:30.319Z,103243.35
2019-05-12T10:20:06.082Z,103243.42
2019-05-12T10:22:43.563Z,103245.79
2019-05-12T10:25:23.112Z,103254.60
2019-05-12T10:27:55.232Z,103250.70
2019-05-12T10:30:30.521Z,103251.58
2019-05-12T10:33:05.526Z,103255.48
2019-05-12T10:35:40.904Z,103254.06
2019-05-12T10:38:16.038Z,103264.35
2019-05-12T10:40:51.053Z,103259.52
2019-05-12T10:43:26.324Z,103266.12
2019-05-12T10:46:04.038Z,103269.94
2019-05-12T10:48:38.185Z,103265.97
2019-05-12T10:51:13.363Z,103259.52
2019-05-12T10:53:56.796Z,103259.41
2019-05-12T10:56:25.368Z,103277.94
2019-05-12T10:59:00.863Z,103296.32
2019-05-12T11:01:38.502Z,103296.34
2019-05-12T11:04:14.421Z,103294.68
2019-05-12T11:06:49.492Z,103283.45
2019-05-12T11:09:29.395Z,103295.66
2019-05-12T11:12:03.357Z,103286.92
2019-05-12T11:14:38.733Z,103288.14
2019-05-12T11:17:17.558Z,103282.70
2019-05-12T11:19:58.178Z,103272.41
2019-05-12T11:22:33.974Z,103271.80
2019-05-12T11:25:09.306Z,103280.27
2019-05-12T11:27:44.593Z,103278.52
2019-05-12T11:30:20.638Z,103275.44
2019-05-12T11:32:55.830Z,103267.60
2019-05-12T11:35:30.963Z,103268.45
2019-05-12T11:38:13.474Z,103267.64
2019-05-12T11:40:53.708Z,103279.03
2019-05-12T11:43:29.852Z,103289.47
2019-05-12T11:46:06.457Z,103281.36
2019-05-12T11:48:46.330Z,103286.23
2019-05-12T11:51:20.736Z,103284.64
2019-05-12T11:53:55.744Z,103309.97
2019-05-12T11:56:30.956Z,103290.20
2019-05-12T11:59:11.106Z,103293.25
2019-05-12T12:01:51.470Z,103292.14
2019-05-12T12:04:28.258Z,103298.59
2019-05-12T12:07:03.440Z,103296.14
2019-05-12T12:09:38.536Z,103296.73
2019-05-12T12:12:13.629Z,103295.56
2019-05-12T12:14:50.382Z,103304.72
2019-05-12T12:17:30.956Z,103310.75
2019-05-12T12:20:03.719Z,103310.10
2019-05-12T12:22:46.090Z,103313.61
2019-05-12T12:25:30.423Z,103313.91
2019-05-12T12:28:05.626Z,103313.84
2019-05-12T12:30:40.701Z,103328.03
2019-05-12T12:33:15.710Z,103326.36
2019-05-12T12:35:56.547Z,103330.73
2019-05-12T12:38:27.514Z,103330.27
2019-05-12T12:41:03.857Z,103340.39
2019-05-12T12:43:38.982Z,103331.16
2019-05-12T12:46:27.224Z,103327.72
2019-05-12T12:49:06.553Z,103341.55
2019-05-12T12:51:39.817Z,103359.08
2019-05-12T12:54:14.882Z,103348.05
2019-05-12T12:56:49.929Z,103349.08
2019-05-12T12:59:24.982Z,103357.18
2019-05-12T13:02:07.465Z,103344.23
2019-05-12T13:04:39.704Z,103352.91
2019-05-12T13:07:14.903Z,103355.31
2019-05-12T13:09:55.041Z,103367.92
2019-05-12T13:12:26.579Z,103372.50
2019-05-12T13:15:03.725Z,103369.92
2019-05-12T13:17:41.685Z,103368.70
2019-05-12T13:20:16.076Z,103372.85
2019-05-12T13:22:53.583Z,103366.70
2019-05-12T13:25:28.402Z,103365.37
2019-05-12T13:28:10.389Z,103369.84
2019-05-12T13:30:46.238Z,103369.82
2019-05-12T13:33:18.327Z,103374.80
2019-05-12T13:35:55.703Z,103381.73
2019-05-12T13:38:38.775Z,103389.37
2019-05-12T13:41:09.523Z,103397.67
2019-05-12T13:43:45.246Z,103393.31
2019-05-12T13:46:20.959Z,103388.74
2019-05-12T13:48:59.537Z,103398.66
2019-05-12T13:51:33.408Z,103398.04
2019-05-12T13:54:08.651Z,103395.38
2019-05-12T13:56:44.378Z,103403.48
2019-05-12T13:59:22.605Z,103404.99
2019-05-12T14:01:59.829Z,103407.27
2019-05-12T14:04:35.537Z,103412.77
2019-05-12T14:07:15.717Z,103416.61
2019-05-12T14:09:47.447Z,103415.77
2019-05-12T14:12:22.546Z,103421.52
2019-05-12T14:14:57.527Z,103423.36
2019-05-12T14:17:37.338Z,103433.16
2019-05-12T14:20:15.839Z,103442.39
2019-05-12T14:22:46.435Z,103438.42
2019-05-12T14:25:29.891Z,103439.14
2019-05-12T14:27:59.439Z,103435.70
2019-05-12T14:30:35.030Z,103436.30
2019-05-12T14:33:10.054Z,103439.70
2019-05-12T14:35:46.073Z,103452.33
2019-05-12T14:38:25.402Z,103440.37
2019-05-12T14:41:01.292Z,103443.83
2019-05-12T14:43:35.861Z,103455.13
2019-05-12T14:46:11.025Z,103443.97
2019-05-12T14:48:50.319Z,103449.63
2019-05-12T14:51:24.575Z,103454.31
2019-05-12T14:53:59.647Z,103458.24
2019-05-12T14:56:34.685Z,103460.52
2019-05-12T14:59:09.951Z,103459.25
2019-05-12T15:01:57.146Z,103456.39
2019-05-12T15:04:27.882Z,103467.13
2019-05-12T15:06:59.636Z,103468.62
2019-05-12T15:09:35.369Z,103467.64
2019-05-12T15:12:13.899Z,103472.34
2019-05-12T15:14:48.519Z,103477.41
2019-05-12T15:17:24.559Z,103484.27
2019-05-12T15:20:00.396Z,103482.36
2019-05-12T15:22:36.481Z,103479.80
2019-05-12T15:25:14.584Z,103486.31
2019-05-12T15:27:50.588Z,103489.52
2019-05-12T15:30:26.770Z,103495.21
2019-05-12T15:33:04.306Z,103504.61
2019-05-12T15:35:38.719Z,103508.42
2019-05-12T15:38:14.998Z,103507.17
2019-05-12T15:40:50.927Z,103520.39
2019-05-12T15:43:25.960Z,103511.34
2019-05-12T15:46:01.067Z,103509.81
2019-05-12T15:48:36.212Z,103513.22
2019-05-12T15:51:13.535Z,103512.52
2019-05-12T15:53:49.534Z,103511.03
2019-05-12T15:56:26.286Z,103510.91
2019-05-12T15:59:02.618Z,103507.87
2019-05-12T16:01:37.781Z,103519.58
2019-05-12T16:04:15.166Z,103512.98
2019-05-12T16:06:53.510Z,103521.13
2019-05-12T16:09:26.567Z,103523.27
2019-05-12T16:12:09.358Z,103536.33
2019-05-12T16:14:41.085Z,103541.00
2019-05-12T16:17:24.637Z,103542.22
2019-05-12T16:19:54.240Z,103544.78
2019-05-12T16:22:35.858Z,103548.63
2019-05-12T16:25:07.996Z,103555.64
2019-05-12T16:27:44.420Z,103559.00
2019-05-12T16:30:25.116Z,103566.35
2019-05-12T16:32:58.538Z,103561.83
2019-05-12T16:35:34.579Z,103568.98
2019-05-12T16:38:17.309Z,103569.69
2019-05-12T16:40:49.759Z,103571.81
2019-05-12T16:43:24.165Z,103577.22
2019-05-12T16:45:59.315Z,103571.42
2019-05-12T16:48:36.336Z,103573.86
2019-05-12T16:51:13.703Z,103567.38
2019-05-12T16:53:48.179Z,103569.98
2019-05-12T16:56:29.433Z,103571.31
2019-05-12T16:59:07.163Z,103565.48
2019-05-12T17:01:38.693Z,103569.64
2019-05-12T17:04:14.245Z,103569.47
2019-05-12T17:06:50.043Z,103574.05
2019-05-12T17:09:25.171Z,103582.70
2019-05-12T17:12:00.965Z,103582.77
2019-05-12T17:14:44.816Z,103590.73
2019-05-12T17:17:14.455Z,103590.80
2019-05-12T17:19:49.653Z,103588.77
2019-05-12T17:22:24.870Z,103589.82
2019-05-12T17:25:00.022Z,103597.81
2019-05-12T17:27:35.253Z,103595.97
2019-05-12T17:30:10.672Z,103597.66
2019-05-12T17:32:58.021Z,103602.27
2019-05-12T17:35:26.921Z,103616.00
2019-05-12T17:38:01.468Z,103617.48
2019-05-12T17:40:36.679Z,103620.28
2019-05-12T17:43:12.185Z,103622.86
2019-05-12T17:45:50.425Z,103633.28
2019-05-12T17:48:24.126Z,103641.59
2019-05-12T17:50:59.263Z,103638.23
2019-05-12T17:53:36.207Z,103637.63
2019-05-12T17:56:11.121Z,103643.63
2019-05-12T17:58:47.536Z,103643.64
2019-05-12T18:01:31.048Z,103643.05
2019-05-12T18:03:59.633Z,103645.97
2019-05-12T18:06:34.843Z,103660.48
2019-05-12T18:09:15.701Z,103657.48
2019-05-12T18:11:54.184Z,103662.27
2019-05-12T18:14:27.482Z,103665.28
2019-05-12T18:17:07.559Z,103664.30
2019-05-12T18:19:37.772Z,103666.34
2019-05-12T18:22:14.087Z,103675.17
2019-05-12T18:24:50.826Z,103667.00
2019-05-12T18:27:26.041Z,103666.55
2019-05-12T18:30:01.121Z,103669.24
2019-05-12T18:32:36.212Z,103665.59
2019-05-12T18:35:13.422Z,103668.13
2019-05-12T18:38:07.938Z,103670.98
2019-05-12T18:40:40.471Z,103674.76
2019-05-12T18:43:15.475Z,103677.22
2019-05-12T18:45:57.066Z,103675.27
2019-05-12T18:48:27.123Z,103676.56
2019-05-12T18:51:11.644Z,103682.50
2019-05-12T18:53:38.998Z,103678.48
2019-05-12T18:56:19.851Z,103678.98
2019-05-12T18:58:51.485Z,103688.45
2019-05-12T19:01:26.614Z,103686.03
2019-05-12T19:04:03.792Z,103693.36
2019-05-12T19:06:40.009Z,103693.25
2019-05-12T19:09:15.328Z,103703.37
2019-05-12T19:11:50.363Z,103707.43
2019-05-12T19:14:34.900Z,103702.44
2019-05-12T19:17:03.553Z,103707.79
2019-05-12T19:19:40.677Z,103717.20
2019-05-12T19:22:15.725Z,103720.09
2019-05-12T19:24:56.639Z,103726.31
2019-05-12T19:27:27.670Z,103727.67
2019-05-12T19:30:04.899Z,103730.34
2019-05-12T19:32:40.140Z,103729.88
2019-05-12T19:35:20.237Z,103738.14
2019-05-12T19:37:53.865Z,103740.20
2019-05-12T19:40:29.027Z,103747.14
2019-05-12T19:43:08.160Z,103751.22
2019-05-12T19:45:43.368Z,103750.75
2019-05-12T19:48:24.905Z,103751.56
2019-05-12T19:50:57.117Z,103750.20
2019-05-12T19:53:33.262Z,103754.97
2019-05-12T19:56:08.353Z,103756.45
2019-05-12T19:58:45.973Z,103760.56
2019-05-12T20:01:26.067Z,103756.88
2019-05-12T20:03:58.220Z,103763.22
2019-05-12T20:06:33.735Z,103766.41
2019-05-12T20:09:11.038Z,103757.36
2019-05-12T20:11:46.121Z,103758.39
2019-05-12T20:14:24.108Z,103762.99
2019-05-12T20:16:58.613Z,103763.97
2019-05-12T20:19:35.190Z,103761.70
2019-05-12T20:22:11.033Z,103757.77
2019-05-12T20:24:46.049Z,103761.05
2019-05-12T20:27:22.499Z,103760.41
2019-05-12T20:29:57.785Z,103758.44
2019-05-12T20:32:34.388Z,103757.63
2019-05-12T20:35:09.634Z,103757.80
2019-05-12T20:37:53.132Z,103762.23
2019-05-12T20:40:23.720Z,103765.66
2019-05-12T20:43:07.975Z,103768.28
2019-05-12T20:45:40.665Z,103772.88
2019-05-12T20:48:11.674Z,103775.02
2019-05-12T20:50:47.680Z,103776.17
2019-05-12T20:53:31.649Z,103790.11
2019-05-12T20:55:59.548Z,103788.15
2019-05-12T20:58:43.095Z,103791.08
2019-05-12T21:01:11.180Z,103787.30
2019-05-12T21:03:50.725Z,103784.70
2019-05-12T21:06:23.713Z,103788.96
2019-05-12T21:08:58.884Z,103793.20
2019-05-12T21:11:34.662Z,103797.11
2019-05-12T21:14:11.630Z,103793.02
2019-05-12T21:16:46.292Z,103801.85
2019-05-12T21:19:23.779Z,103797.11
2019-05-12T21:21:59.453Z,103806.59
2019-05-12T21:24:39.134Z,103801.51
2019-05-12T21:27:18.276Z,103799.35
2019-05-12T21:29:50.225Z,103805.05
2019-05-12T21:32:30.110Z,103804.90
2019-05-12T21:35:18.275Z,103808.02
2019-05-12T21:37:45.412Z,103812.05
2019-05-12T21:40:22.357Z,103815.92
2019-05-12T21:42:55.289Z,103811.48
2019-05-12T21:45:31.092Z,103810.39
2019-05-12T21:48:06.180Z,103817.98
2019-05-12T21:50:41.536Z,103824.36
2019-05-12T21:53:20.615Z,103820.72
2019-05-12T21:56:03.834Z,103825.73
2019-05-12T21:58:33.427Z,103821.48
2019-05-12T22:01:13.447Z,103831.15
2019-05-12T22:03:57.823Z,103833.61
2019-05-12T22:06:26.014Z,103827.79
2019-05-12T22:09:04.563Z,103831.92
2019-05-12T22:11:42.311Z,103826.95
2019-05-12T22:14:16.314Z,103834.66
2019-05-12T22:16:53.654Z,103835.95
2019-05-12T22:19:30.879Z,103835.73
2019-05-12T22:22:05.418Z,103836.08
2019-05-12T22:24:40.517Z,103841.75
2019-05-12T22:27:21.994Z,103843.26
2019-05-12T22:29:52.180Z,103841.72
2019-05-12T22:32:29.541Z,103845.89
2019-05-12T22:35:04.040Z,103850.25
2019-05-12T22:37:38.986Z,103849.63
2019-05-12T22:40:19.110Z,103849.41
2019-05-12T22:42:56.953Z,103845.06
2019-05-12T22:45:29.180Z,103849.97
2019-05-12T22:48:04.576Z,103851.48
2019-05-12T22:50:39.632Z,103846.77
2019-05-12T22:53:19.420Z,103849.73
2019-05-12T22:55:53.277Z,103848.69
2019-05-12T22:58:27.999Z,103849.72
2019-05-12T23:01:05.404Z,103853.87
2019-05-12T23:03:43.175Z,103850.77
2019-05-12T23:06:23.703Z,103854.95
2019-05-12T23:08:54.333Z,103852.91
2019-05-12T23:11:37.674Z,103859.82
2019-05-12T23:14:06.033Z,103850.79
2019-05-12T23:16:41.030Z,103861.27
2019-05-12T23:19:16.758Z,103857.78
2019-05-12T23:21:55.327Z,103865.17
2019-05-12T23:24:30.474Z,103868.95
2019-05-12T23:27:08.840Z,103861.91
2019-05-12T23:29:44.370Z,103862.58
2019-05-12T23:32:19.483Z,103855.52
2019-05-12T23:34:58.511Z,103864.19
2019-05-12T23:37:38.444Z,103866.38
2019-05-12T23:40:11.614Z,103867.19
2019-05-12T23:42:50.513Z,103866.38
2019-05-12T23:45:25.469Z,103869.94
2019-05-12T23:48:00.531Z,103874.53
2019-05-12T23:50:35.476Z,103868.59
2019-05-12T23:53:10.452Z,103867.56
2019-05-12T23:55:45.394Z,103859.10
2019-05-12T23:58:20.404Z,103861.79
